sensor_id;sensor_type;location;lat;lon;timestamp;temperature;humidity
15483;DHT22;7843;50.330;7.312;2023-02-01T00:01:05;3.10;99.90
15483;DHT22;7843;50.330;7.312;2023-02-01T00:03:32;3.20;99.90
15483;DHT22;7843;50.330;7.312;2023-02-01T00:05:59;3.20;99.90
15483;DHT22;7843;50.330;7.312;2023-02-01T00:08:26;3.20;99.90
15483;DHT22;7843;50.330;7.312;2023-02-01T00:11:05;3.30;99.90
15483;DHT22;7843;50.330;7.312;2023-02-01T00:13:34;3.30;99.90
15483;DHT22;7843;50.330;7.312;2023-02-01T00:16:16;3.40;99.90
15483;DHT22;7843;50.330;7.312;2023-02-01T00:18:44;3.40;99.90
15483;DHT22;7843;50.330;7.312;2023-02-01T00:21:12;3.40;99.90
15483;DHT22;7843;50.330;7.312;2023-02-01T00:23:39;3.50;99.90
15483;DHT22;7843;50.330;7.312;2023-02-01T00:26:08;3.50;99.90
15483;DHT22;7843;50.330;7.312;2023-02-01T00:28:37;3.50;99.90
15483;DHT22;7843;50.330;7.312;2023-02-01T00:31:04;3.50;99.90
15483;DHT22;7843;50.330;7.312;2023-02-01T00:33:32;3.60;99.90
15483;DHT22;7843;50.330;7.312;2023-02-01T00:36:00;3.60;99.90
15483;DHT22;7843;50.330;7.312;2023-02-01T00:38:29;3.60;99.90
15483;DHT22;7843;50.330;7.312;2023-02-01T00:41:03;3.60;99.90
15483;DHT22;7843;50.330;7.312;2023-02-01T00:43:33;3.70;99.90
15483;DHT22;7843;50.330;7.312;2023-02-01T00:46:00;3.70;99.90
15483;DHT22;7843;50.330;7.312;2023-02-01T00:48:27;3.70;99.90
15483;DHT22;7843;50.330;7.312;2023-02-01T00:50:54;3.70;99.90
15483;DHT22;7843;50.330;7.312;2023-02-01T00:53:24;3.80;99.90
15483;DHT22;7843;50.330;7.312;2023-02-01T00:55:51;3.80;99.90
15483;DHT22;7843;50.330;7.312;2023-02-01T00:58:18;3.80;99.90
15483;DHT22;7843;50.330;7.312;2023-02-01T01:00:45;3.80;99.90
15483;DHT22;7843;50.330;7.312;2023-02-01T01:03:12;3.80;99.90
15483;DHT22;7843;50.330;7.312;2023-02-01T01:05:46;3.80;99.90
15483;DHT22;7843;50.330;7.312;2023-02-01T01:08:14;3.80;99.90
15483;DHT22;7843;50.330;7.312;2023-02-01T01:10:41;3.80;99.90
15483;DHT22;7843;50.330;7.312;2023-02-01T01:13:09;3.80;99.90
15483;DHT22;7843;50.330;7.312;2023-02-01T01:15:37;3.80;99.90
15483;DHT22;7843;50.330;7.312;2023-02-01T01:18:04;3.80;99.90
15483;DHT22;7843;50.330;7.312;2023-02-01T01:20:31;3.80;99.90
15483;DHT22;7843;50.330;7.312;2023-02-01T01:22:57;3.80;99.90
15483;DHT22;7843;50.330;7.312;2023-02-01T01:25:24;3.80;99.90
15483;DHT22;7843;50.330;7.312;2023-02-01T01:27:51;3.70;99.90
15483;DHT22;7843;50.330;7.312;2023-02-01T01:30:17;3.80;99.90
15483;DHT22;7843;50.330;7.312;2023-02-01T01:32:44;3.80;99.90
15483;DHT22;7843;50.330;7.312;2023-02-01T01:35:11;3.80;99.90
15483;DHT22;7843;50.330;7.312;2023-02-01T01:37:38;3.70;99.90
15483;DHT22;7843;50.330;7.312;2023-02-01T01:40:05;3.70;99.90
15483;DHT22;7843;50.330;7.312;2023-02-01T01:42:43;3.70;99.90
15483;DHT22;7843;50.330;7.312;2023-02-01T01:45:31;3.70;99.90
15483;DHT22;7843;50.330;7.312;2023-02-01T01:48:04;3.70;99.90
15483;DHT22;7843;50.330;7.312;2023-02-01T01:50:37;3.70;99.90
15483;DHT22;7843;50.330;7.312;2023-02-01T01:53:06;3.70;99.90
15483;DHT22;7843;50.330;7.312;2023-02-01T01:55:38;3.70;99.90
15483;DHT22;7843;50.330;7.312;2023-02-01T01:58:10;3.70;99.90
15483;DHT22;7843;50.330;7.312;2023-02-01T02:00:38;3.70;99.90
15483;DHT22;7843;50.330;7.312;2023-02-01T02:03:23;3.70;99.90
15483;DHT22;7843;50.330;7.312;2023-02-01T02:05:50;3.60;99.90
15483;DHT22;7843;50.330;7.312;2023-02-01T02:08:19;3.60;99.90
15483;DHT22;7843;50.330;7.312;2023-02-01T02:10:48;3.60;99.90
15483;DHT22;7843;50.330;7.312;2023-02-01T02:13:38;3.60;99.90
15483;DHT22;7843;50.330;7.312;2023-02-01T02:39:46;3.70;99.90
15483;DHT22;7843;50.330;7.312;2023-02-01T02:42:29;3.70;99.90
15483;DHT22;7843;50.330;7.312;2023-02-01T02:45:26;3.70;99.90
15483;DHT22;7843;50.330;7.312;2023-02-01T02:48:20;3.70;99.90
15483;DHT22;7843;50.330;7.312;2023-02-01T02:51:15;3.70;99.90
15483;DHT22;7843;50.330;7.312;2023-02-01T02:54:10;3.70;99.90
15483;DHT22;7843;50.330;7.312;2023-02-01T02:56:58;3.70;99.90
15483;DHT22;7843;50.330;7.312;2023-02-01T02:59:45;3.70;99.90
15483;DHT22;7843;50.330;7.312;2023-02-01T03:02:33;3.70;99.90
15483;DHT22;7843;50.330;7.312;2023-02-01T03:05:19;3.70;99.90
15483;DHT22;7843;50.330;7.312;2023-02-01T03:07:57;3.70;99.90
15483;DHT22;7843;50.330;7.312;2023-02-01T03:13:45;3.70;99.90
15483;DHT22;7843;50.330;7.312;2023-02-01T03:21:41;3.60;99.90
15483;DHT22;7843;50.330;7.312;2023-02-01T03:24:14;3.70;99.90
15483;DHT22;7843;50.330;7.312;2023-02-01T03:26:55;3.60;99.90
15483;DHT22;7843;50.330;7.312;2023-02-01T03:29:36;3.70;99.90
15483;DHT22;7843;50.330;7.312;2023-02-01T03:32:04;3.70;99.90
15483;DHT22;7843;50.330;7.312;2023-02-01T03:34:32;3.60;99.90
15483;DHT22;7843;50.330;7.312;2023-02-01T03:37:02;3.60;99.90
15483;DHT22;7843;50.330;7.312;2023-02-01T03:39:42;3.60;99.90
15483;DHT22;7843;50.330;7.312;2023-02-01T03:42:17;3.60;99.90
15483;DHT22;7843;50.330;7.312;2023-02-01T03:44:54;3.60;99.90
15483;DHT22;7843;50.330;7.312;2023-02-01T03:47:28;3.60;99.90
15483;DHT22;7843;50.330;7.312;2023-02-01T03:50:05;3.60;99.90
15483;DHT22;7843;50.330;7.312;2023-02-01T03:52:40;3.50;99.90
15483;DHT22;7843;50.330;7.312;2023-02-01T03:55:08;3.50;99.90
15483;DHT22;7843;50.330;7.312;2023-02-01T03:57:41;3.50;99.90
15483;DHT22;7843;50.330;7.312;2023-02-01T04:00:35;3.50;99.90
15483;DHT22;7843;50.330;7.312;2023-02-01T04:03:04;3.40;99.90
15483;DHT22;7843;50.330;7.312;2023-02-01T04:05:31;3.40;99.90
15483;DHT22;7843;50.330;7.312;2023-02-01T04:07:58;3.40;99.90
15483;DHT22;7843;50.330;7.312;2023-02-01T04:10:25;3.50;99.90
15483;DHT22;7843;50.330;7.312;2023-02-01T04:12:51;3.50;99.90
15483;DHT22;7843;50.330;7.312;2023-02-01T04:15:18;3.40;99.90
15483;DHT22;7843;50.330;7.312;2023-02-01T04:17:45;3.40;99.90
15483;DHT22;7843;50.330;7.312;2023-02-01T04:20:11;3.40;99.90
15483;DHT22;7843;50.330;7.312;2023-02-01T04:22:38;3.40;99.90
15483;DHT22;7843;50.330;7.312;2023-02-01T04:25:05;3.50;99.90
15483;DHT22;7843;50.330;7.312;2023-02-01T04:27:32;3.50;99.90
15483;DHT22;7843;50.330;7.312;2023-02-01T04:29:59;3.40;99.90
15483;DHT22;7843;50.330;7.312;2023-02-01T04:32:25;3.40;99.90
15483;DHT22;7843;50.330;7.312;2023-02-01T04:34:52;3.50;99.90
15483;DHT22;7843;50.330;7.312;2023-02-01T04:37:18;3.50;99.90
15483;DHT22;7843;50.330;7.312;2023-02-01T04:39:45;3.50;99.90
15483;DHT22;7843;50.330;7.312;2023-02-01T04:42:12;3.50;99.90
15483;DHT22;7843;50.330;7.312;2023-02-01T04:44:39;3.50;99.90
15483;DHT22;7843;50.330;7.312;2023-02-01T04:47:08;3.50;99.90
15483;DHT22;7843;50.330;7.312;2023-02-01T04:49:35;3.50;99.90
15483;DHT22;7843;50.330;7.312;2023-02-01T04:52:02;3.50;99.90
15483;DHT22;7843;50.330;7.312;2023-02-01T04:54:29;3.50;99.90
15483;DHT22;7843;50.330;7.312;2023-02-01T04:56:56;3.50;99.90
15483;DHT22;7843;50.330;7.312;2023-02-01T04:59:22;3.50;99.90
15483;DHT22;7843;50.330;7.312;2023-02-01T05:01:49;3.50;99.90
15483;DHT22;7843;50.330;7.312;2023-02-01T05:04:16;3.40;99.90
15483;DHT22;7843;50.330;7.312;2023-02-01T05:06:45;3.40;99.90
15483;DHT22;7843;50.330;7.312;2023-02-01T05:09:12;3.50;99.90
15483;DHT22;7843;50.330;7.312;2023-02-01T05:11:38;3.50;99.90
15483;DHT22;7843;50.330;7.312;2023-02-01T05:14:24;3.30;99.90
15483;DHT22;7843;50.330;7.312;2023-02-01T05:16:50;3.20;99.90
15483;DHT22;7843;50.330;7.312;2023-02-01T05:19:17;3.30;99.90
15483;DHT22;7843;50.330;7.312;2023-02-01T05:21:43;3.30;99.90
15483;DHT22;7843;50.330;7.312;2023-02-01T05:24:10;3.30;99.90
15483;DHT22;7843;50.330;7.312;2023-02-01T05:26:40;3.30;99.90
15483;DHT22;7843;50.330;7.312;2023-02-01T05:29:08;3.20;99.90
15483;DHT22;7843;50.330;7.312;2023-02-01T05:31:35;3.10;99.90
15483;DHT22;7843;50.330;7.312;2023-02-01T05:34:02;3.10;99.90
15483;DHT22;7843;50.330;7.312;2023-02-01T05:36:30;3.00;99.90
15483;DHT22;7843;50.330;7.312;2023-02-01T05:38:56;2.90;99.90
15483;DHT22;7843;50.330;7.312;2023-02-01T05:41:23;2.90;99.90
15483;DHT22;7843;50.330;7.312;2023-02-01T05:43:50;2.90;99.90
15483;DHT22;7843;50.330;7.312;2023-02-01T05:46:17;2.80;99.90
15483;DHT22;7843;50.330;7.312;2023-02-01T05:48:43;2.70;99.90
15483;DHT22;7843;50.330;7.312;2023-02-01T05:51:11;2.70;99.90
15483;DHT22;7843;50.330;7.312;2023-02-01T05:53:37;2.70;99.90
15483;DHT22;7843;50.330;7.312;2023-02-01T05:56:05;2.60;99.90
15483;DHT22;7843;50.330;7.312;2023-02-01T05:58:31;2.50;99.90
15483;DHT22;7843;50.330;7.312;2023-02-01T06:01:02;2.50;99.90
15483;DHT22;7843;50.330;7.312;2023-02-01T06:03:29;2.40;99.90
15483;DHT22;7843;50.330;7.312;2023-02-01T06:05:56;2.30;99.90
15483;DHT22;7843;50.330;7.312;2023-02-01T06:08:23;2.50;99.90
15483;DHT22;7843;50.330;7.312;2023-02-01T06:11:01;2.50;99.90
15483;DHT22;7843;50.330;7.312;2023-02-01T06:13:28;2.40;99.90
15483;DHT22;7843;50.330;7.312;2023-02-01T06:15:55;2.40;99.90
15483;DHT22;7843;50.330;7.312;2023-02-01T06:18:24;2.60;99.90
15483;DHT22;7843;50.330;7.312;2023-02-01T06:20:55;2.60;99.90
15483;DHT22;7843;50.330;7.312;2023-02-01T06:23:23;2.60;99.90
15483;DHT22;7843;50.330;7.312;2023-02-01T06:26:04;2.60;99.90
15483;DHT22;7843;50.330;7.312;2023-02-01T06:28:32;2.70;99.90
15483;DHT22;7843;50.330;7.312;2023-02-01T06:31:06;2.60;99.90
15483;DHT22;7843;50.330;7.312;2023-02-01T06:33:33;2.50;99.90
15483;DHT22;7843;50.330;7.312;2023-02-01T06:36:02;2.30;99.90
15483;DHT22;7843;50.330;7.312;2023-02-01T06:38:30;2.20;99.90
15483;DHT22;7843;50.330;7.312;2023-02-01T06:40:57;2.10;99.90
15483;DHT22;7843;50.330;7.312;2023-02-01T06:43:25;2.00;99.90
15483;DHT22;7843;50.330;7.312;2023-02-01T06:45:53;2.00;99.90
15483;DHT22;7843;50.330;7.312;2023-02-01T06:48:19;2.00;99.90
15483;DHT22;7843;50.330;7.312;2023-02-01T06:50:46;1.90;99.90
15483;DHT22;7843;50.330;7.312;2023-02-01T06:53:13;1.80;99.90
15483;DHT22;7843;50.330;7.312;2023-02-01T06:55:39;1.80;99.90
15483;DHT22;7843;50.330;7.312;2023-02-01T06:58:06;1.80;99.90
15483;DHT22;7843;50.330;7.312;2023-02-01T07:00:33;1.90;99.90
15483;DHT22;7843;50.330;7.312;2023-02-01T07:03:00;1.80;99.90
15483;DHT22;7843;50.330;7.312;2023-02-01T07:05:27;1.80;99.90
15483;DHT22;7843;50.330;7.312;2023-02-01T07:07:54;1.70;99.90
15483;DHT22;7843;50.330;7.312;2023-02-01T07:10:20;1.60;99.90
15483;DHT22;7843;50.330;7.312;2023-02-01T07:12:47;1.70;99.90
15483;DHT22;7843;50.330;7.312;2023-02-01T07:15:14;1.70;99.90
15483;DHT22;7843;50.330;7.312;2023-02-01T07:17:41;1.60;99.90
15483;DHT22;7843;50.330;7.312;2023-02-01T07:20:08;1.60;99.90
15483;DHT22;7843;50.330;7.312;2023-02-01T07:22:35;1.60;99.90
15483;DHT22;7843;50.330;7.312;2023-02-01T07:25:02;1.70;99.90
15483;DHT22;7843;50.330;7.312;2023-02-01T07:27:34;1.70;99.90
15483;DHT22;7843;50.330;7.312;2023-02-01T07:30:01;1.70;99.90
15483;DHT22;7843;50.330;7.312;2023-02-01T07:32:29;1.70;99.90
15483;DHT22;7843;50.330;7.312;2023-02-01T07:34:57;1.80;99.90
15483;DHT22;7843;50.330;7.312;2023-02-01T07:37:24;1.70;99.90
15483;DHT22;7843;50.330;7.312;2023-02-01T07:39:51;1.70;99.90
15483;DHT22;7843;50.330;7.312;2023-02-01T07:42:18;1.60;99.90
15483;DHT22;7843;50.330;7.312;2023-02-01T07:44:45;1.60;99.90
15483;DHT22;7843;50.330;7.312;2023-02-01T07:47:11;1.60;99.90
15483;DHT22;7843;50.330;7.312;2023-02-01T07:49:38;1.70;99.90
15483;DHT22;7843;50.330;7.312;2023-02-01T07:52:05;1.80;99.90
15483;DHT22;7843;50.330;7.312;2023-02-01T07:54:31;1.80;99.90
15483;DHT22;7843;50.330;7.312;2023-02-01T07:56:58;2.00;99.90
15483;DHT22;7843;50.330;7.312;2023-02-01T07:59:25;2.00;99.90
15483;DHT22;7843;50.330;7.312;2023-02-01T08:01:51;2.20;99.90
15483;DHT22;7843;50.330;7.312;2023-02-01T08:04:18;2.30;99.90
15483;DHT22;7843;50.330;7.312;2023-02-01T08:06:44;2.40;99.90
15483;DHT22;7843;50.330;7.312;2023-02-01T08:09:11;2.60;99.90
15483;DHT22;7843;50.330;7.312;2023-02-01T08:11:38;2.70;99.90
15483;DHT22;7843;50.330;7.312;2023-02-01T08:14:05;2.80;99.90
15483;DHT22;7843;50.330;7.312;2023-02-01T08:16:33;2.90;99.90
15483;DHT22;7843;50.330;7.312;2023-02-01T08:19:01;3.00;99.90
15483;DHT22;7843;50.330;7.312;2023-02-01T08:21:28;3.00;99.90
15483;DHT22;7843;50.330;7.312;2023-02-01T08:24:04;3.10;99.90
15483;DHT22;7843;50.330;7.312;2023-02-01T08:26:31;3.10;99.90
15483;DHT22;7843;50.330;7.312;2023-02-01T08:29:01;3.30;99.90
15483;DHT22;7843;50.330;7.312;2023-02-01T08:31:29;3.30;99.90
15483;DHT22;7843;50.330;7.312;2023-02-01T08:33:58;3.30;99.90
15483;DHT22;7843;50.330;7.312;2023-02-01T08:36:27;3.50;99.90
15483;DHT22;7843;50.330;7.312;2023-02-01T08:38:54;3.50;99.90
15483;DHT22;7843;50.330;7.312;2023-02-01T08:41:23;3.50;99.90
15483;DHT22;7843;50.330;7.312;2023-02-01T08:43:50;3.50;99.90
15483;DHT22;7843;50.330;7.312;2023-02-01T08:46:17;3.70;99.90
15483;DHT22;7843;50.330;7.312;2023-02-01T08:48:46;3.70;99.90
15483;DHT22;7843;50.330;7.312;2023-02-01T08:51:15;3.70;99.90
15483;DHT22;7843;50.330;7.312;2023-02-01T08:53:42;3.70;99.90
15483;DHT22;7843;50.330;7.312;2023-02-01T08:56:11;3.70;99.90
15483;DHT22;7843;50.330;7.312;2023-02-01T08:58:38;3.80;99.90
15483;DHT22;7843;50.330;7.312;2023-02-01T09:01:07;3.80;99.90
15483;DHT22;7843;50.330;7.312;2023-02-01T09:03:34;3.80;99.90
15483;DHT22;7843;50.330;7.312;2023-02-01T09:06:06;3.90;99.90
15483;DHT22;7843;50.330;7.312;2023-02-01T09:08:33;4.00;99.90
15483;DHT22;7843;50.330;7.312;2023-02-01T09:11:02;4.10;99.90
15483;DHT22;7843;50.330;7.312;2023-02-01T09:13:29;4.10;99.90
15483;DHT22;7843;50.330;7.312;2023-02-01T09:15:56;4.20;99.90
15483;DHT22;7843;50.330;7.312;2023-02-01T09:18:23;4.30;99.90
15483;DHT22;7843;50.330;7.312;2023-02-01T09:20:50;4.40;99.90
15483;DHT22;7843;50.330;7.312;2023-02-01T09:23:16;4.50;99.90
15483;DHT22;7843;50.330;7.312;2023-02-01T09:25:43;4.60;99.90
15483;DHT22;7843;50.330;7.312;2023-02-01T09:28:10;4.60;99.90
15483;DHT22;7843;50.330;7.312;2023-02-01T09:30:37;4.70;99.90
15483;DHT22;7843;50.330;7.312;2023-02-01T09:33:04;4.70;99.90
15483;DHT22;7843;50.330;7.312;2023-02-01T09:35:31;4.80;99.90
15483;DHT22;7843;50.330;7.312;2023-02-01T09:37:57;4.90;99.90
15483;DHT22;7843;50.330;7.312;2023-02-01T09:40:24;4.90;99.90
15483;DHT22;7843;50.330;7.312;2023-02-01T09:45:35;4.90;99.90
15483;DHT22;7843;50.330;7.312;2023-02-01T09:48:17;4.90;99.90
15483;DHT22;7843;50.330;7.312;2023-02-01T09:51:04;5.00;99.90
15483;DHT22;7843;50.330;7.312;2023-02-01T09:53:33;5.10;99.90
15483;DHT22;7843;50.330;7.312;2023-02-01T09:56:06;5.10;99.90
15483;DHT22;7843;50.330;7.312;2023-02-01T09:58:40;5.10;99.90
15483;DHT22;7843;50.330;7.312;2023-02-01T10:01:22;5.10;99.90
15483;DHT22;7843;50.330;7.312;2023-02-01T10:03:53;5.10;99.90
15483;DHT22;7843;50.330;7.312;2023-02-01T10:09:57;5.10;99.90
15483;DHT22;7843;50.330;7.312;2023-02-01T10:15:30;5.10;99.90
15483;DHT22;7843;50.330;7.312;2023-02-01T10:26:47;5.00;99.90
15483;DHT22;7843;50.330;7.312;2023-02-01T10:29:20;5.00;99.90
15483;DHT22;7843;50.330;7.312;2023-02-01T10:31:48;5.00;99.90
15483;DHT22;7843;50.330;7.312;2023-02-01T10:34:28;5.10;99.90
15483;DHT22;7843;50.330;7.312;2023-02-01T10:39:40;5.10;99.90
15483;DHT22;7843;50.330;7.312;2023-02-01T10:42:08;5.10;99.90
15483;DHT22;7843;50.330;7.312;2023-02-01T10:44:41;5.10;99.90
15483;DHT22;7843;50.330;7.312;2023-02-01T10:47:10;5.10;99.90
15483;DHT22;7843;50.330;7.312;2023-02-01T10:49:43;5.20;99.90
15483;DHT22;7843;50.330;7.312;2023-02-01T10:52:21;5.20;99.90
15483;DHT22;7843;50.330;7.312;2023-02-01T10:54:53;5.30;99.90
15483;DHT22;7843;50.330;7.312;2023-02-01T10:57:22;5.40;99.90
15483;DHT22;7843;50.330;7.312;2023-02-01T10:59:52;5.40;99.90
15483;DHT22;7843;50.330;7.312;2023-02-01T11:02:34;5.40;99.90
15483;DHT22;7843;50.330;7.312;2023-02-01T11:05:07;5.40;99.90
15483;DHT22;7843;50.330;7.312;2023-02-01T11:07:47;5.50;99.90
15483;DHT22;7843;50.330;7.312;2023-02-01T11:10:40;5.60;99.90
15483;DHT22;7843;50.330;7.312;2023-02-01T11:13:14;5.60;99.90
15483;DHT22;7843;50.330;7.312;2023-02-01T11:15:46;5.60;99.90
15483;DHT22;7843;50.330;7.312;2023-02-01T11:18:27;5.60;99.90
15483;DHT22;7843;50.330;7.312;2023-02-01T11:20:55;5.70;99.90
15483;DHT22;7843;50.330;7.312;2023-02-01T11:23:26;5.70;99.90
15483;DHT22;7843;50.330;7.312;2023-02-01T11:26:00;5.70;99.90
15483;DHT22;7843;50.330;7.312;2023-02-01T11:28:30;5.80;99.90
15483;DHT22;7843;50.330;7.312;2023-02-01T11:31:02;5.80;99.90
15483;DHT22;7843;50.330;7.312;2023-02-01T11:33:35;5.90;99.90
15483;DHT22;7843;50.330;7.312;2023-02-01T11:36:16;5.90;99.90
15483;DHT22;7843;50.330;7.312;2023-02-01T11:39:09;6.10;99.90
15483;DHT22;7843;50.330;7.312;2023-02-01T11:41:59;6.20;99.90
15483;DHT22;7843;50.330;7.312;2023-02-01T11:49:54;6.50;98.50
15483;DHT22;7843;50.330;7.312;2023-02-01T12:01:21;6.50;97.20
15483;DHT22;7843;50.330;7.312;2023-02-01T12:06:45;6.70;96.80
15483;DHT22;7843;50.330;7.312;2023-02-01T12:09:31;6.80;95.90
15483;DHT22;7843;50.330;7.312;2023-02-01T12:23:24;6.80;94.60
15483;DHT22;7843;50.330;7.312;2023-02-01T12:31:13;7.00;95.00
15483;DHT22;7843;50.330;7.312;2023-02-01T12:33:51;7.00;95.00
15483;DHT22;7843;50.330;7.312;2023-02-01T12:44:06;7.00;94.10
15483;DHT22;7843;50.330;7.312;2023-02-01T12:49:16;7.10;93.00
15483;DHT22;7843;50.330;7.312;2023-02-01T12:51:47;7.10;92.80
15483;DHT22;7843;50.330;7.312;2023-02-01T12:54:20;7.20;93.00
15483;DHT22;7843;50.330;7.312;2023-02-01T12:56:57;7.30;92.80
15483;DHT22;7843;50.330;7.312;2023-02-01T12:59:44;7.40;92.00
15483;DHT22;7843;50.330;7.312;2023-02-01T13:02:42;7.50;92.30
15483;DHT22;7843;50.330;7.312;2023-02-01T13:05:17;7.40;91.80
15483;DHT22;7843;50.330;7.312;2023-02-01T13:07:53;7.50;91.80
15483;DHT22;7843;50.330;7.312;2023-02-01T13:10:35;7.60;90.60
15483;DHT22;7843;50.330;7.312;2023-02-01T13:15:39;8.30;91.30
15483;DHT22;7843;50.330;7.312;2023-02-01T13:18:13;8.60;88.80
15483;DHT22;7843;50.330;7.312;2023-02-01T13:21:08;8.70;87.40
15483;DHT22;7843;50.330;7.312;2023-02-01T13:23:41;9.10;86.60
15483;DHT22;7843;50.330;7.312;2023-02-01T13:26:08;9.20;86.90
15483;DHT22;7843;50.330;7.312;2023-02-01T13:42:01;8.70;86.40
15483;DHT22;7843;50.330;7.312;2023-02-01T13:44:40;8.50;86.60
15483;DHT22;7843;50.330;7.312;2023-02-01T13:47:29;8.30;87.10
15483;DHT22;7843;50.330;7.312;2023-02-01T13:50:00;8.20;87.10
15483;DHT22;7843;50.330;7.312;2023-02-01T13:52:41;8.10;88.00
15483;DHT22;7843;50.330;7.312;2023-02-01T13:57:59;8.20;88.30
15483;DHT22;7843;50.330;7.312;2023-02-01T14:00:35;8.10;88.40
15483;DHT22;7843;50.330;7.312;2023-02-01T14:13:54;8.00;89.10
15483;DHT22;7843;50.330;7.312;2023-02-01T14:16:21;7.90;89.20
15483;DHT22;7843;50.330;7.312;2023-02-01T14:21:32;7.90;89.70
15483;DHT22;7843;50.330;7.312;2023-02-01T14:24:04;7.80;89.70
15483;DHT22;7843;50.330;7.312;2023-02-01T14:26:44;7.80;90.40
15483;DHT22;7843;50.330;7.312;2023-02-01T14:29:29;7.70;89.70
15483;DHT22;7843;50.330;7.312;2023-02-01T14:32:19;7.60;89.70
15483;DHT22;7843;50.330;7.312;2023-02-01T14:42:50;7.30;90.40
15483;DHT22;7843;50.330;7.312;2023-02-01T14:55:58;7.30;90.80
15483;DHT22;7843;50.330;7.312;2023-02-01T14:58:55;7.20;91.30
15483;DHT22;7843;50.330;7.312;2023-02-01T15:01:34;7.20;91.20
15483;DHT22;7843;50.330;7.312;2023-02-01T15:04:14;7.10;91.20
15483;DHT22;7843;50.330;7.312;2023-02-01T15:07:04;7.10;91.90
15483;DHT22;7843;50.330;7.312;2023-02-01T15:09:53;7.10;92.00
15483;DHT22;7843;50.330;7.312;2023-02-01T15:12:26;7.10;92.30
15483;DHT22;7843;50.330;7.312;2023-02-01T15:15:18;7.00;92.50
15483;DHT22;7843;50.330;7.312;2023-02-01T15:17:59;7.00;92.90
15483;DHT22;7843;50.330;7.312;2023-02-01T15:20:31;7.00;92.80
15483;DHT22;7843;50.330;7.312;2023-02-01T15:23:05;7.00;93.40
15483;DHT22;7843;50.330;7.312;2023-02-01T15:25:35;7.10;92.50
15483;DHT22;7843;50.330;7.312;2023-02-01T15:28:03;7.10;92.00
15483;DHT22;7843;50.330;7.312;2023-02-01T15:30:33;7.10;92.50
15483;DHT22;7843;50.330;7.312;2023-02-01T15:33:14;7.00;92.70
15483;DHT22;7843;50.330;7.312;2023-02-01T15:35:47;7.10;92.50
15483;DHT22;7843;50.330;7.312;2023-02-01T15:41:04;7.10;92.30
15483;DHT22;7843;50.330;7.312;2023-02-01T15:46:39;7.10;92.40
15483;DHT22;7843;50.330;7.312;2023-02-01T15:49:18;7.10;92.70
15483;DHT22;7843;50.330;7.312;2023-02-01T15:51:47;7.10;92.40
15483;DHT22;7843;50.330;7.312;2023-02-01T15:54:20;7.10;92.50
15483;DHT22;7843;50.330;7.312;2023-02-01T15:56:51;7.10;92.80
15483;DHT22;7843;50.330;7.312;2023-02-01T15:59:24;7.10;92.80
15483;DHT22;7843;50.330;7.312;2023-02-01T16:01:51;7.10;92.70
15483;DHT22;7843;50.330;7.312;2023-02-01T16:04:22;7.00;93.10
15483;DHT22;7843;50.330;7.312;2023-02-01T16:06:55;7.00;93.40
15483;DHT22;7843;50.330;7.312;2023-02-01T16:09:24;6.90;93.90
15483;DHT22;7843;50.330;7.312;2023-02-01T16:12:00;6.90;94.20
15483;DHT22;7843;50.330;7.312;2023-02-01T16:14:28;6.80;94.60
15483;DHT22;7843;50.330;7.312;2023-02-01T16:16:57;6.70;94.80
15483;DHT22;7843;50.330;7.312;2023-02-01T16:19:24;6.70;95.00
15483;DHT22;7843;50.330;7.312;2023-02-01T16:21:55;6.60;94.80
15483;DHT22;7843;50.330;7.312;2023-02-01T16:24:22;6.60;95.20
15483;DHT22;7843;50.330;7.312;2023-02-01T16:26:51;6.60;95.50
15483;DHT22;7843;50.330;7.312;2023-02-01T16:29:18;6.60;95.10
15483;DHT22;7843;50.330;7.312;2023-02-01T16:31:44;6.50;95.30
15483;DHT22;7843;50.330;7.312;2023-02-01T16:34:14;6.50;95.00
15483;DHT22;7843;50.330;7.312;2023-02-01T16:36:44;6.50;95.10
15483;DHT22;7843;50.330;7.312;2023-02-01T16:39:19;6.50;95.30
15483;DHT22;7843;50.330;7.312;2023-02-01T16:41:46;6.50;95.20
15483;DHT22;7843;50.330;7.312;2023-02-01T16:44:13;6.40;95.60
15483;DHT22;7843;50.330;7.312;2023-02-01T16:46:44;6.40;95.40
15483;DHT22;7843;50.330;7.312;2023-02-01T16:49:25;6.40;96.00
15483;DHT22;7843;50.330;7.312;2023-02-01T16:51:56;6.40;95.90
15483;DHT22;7843;50.330;7.312;2023-02-01T16:54:24;6.40;95.70
15483;DHT22;7843;50.330;7.312;2023-02-01T16:56:50;6.40;95.70
15483;DHT22;7843;50.330;7.312;2023-02-01T16:59:17;6.40;95.60
15483;DHT22;7843;50.330;7.312;2023-02-01T17:01:44;6.50;95.20
15483;DHT22;7843;50.330;7.312;2023-02-01T17:04:10;6.50;95.40
15483;DHT22;7843;50.330;7.312;2023-02-01T17:06:38;6.50;95.90
15483;DHT22;7843;50.330;7.312;2023-02-01T17:09:05;6.50;96.30
15483;DHT22;7843;50.330;7.312;2023-02-01T17:11:32;6.50;96.50
15483;DHT22;7843;50.330;7.312;2023-02-01T17:16:41;6.40;96.80
15483;DHT22;7843;50.330;7.312;2023-02-01T17:19:13;6.40;96.90
15483;DHT22;7843;50.330;7.312;2023-02-01T17:21:44;6.30;96.90
15483;DHT22;7843;50.330;7.312;2023-02-01T17:24:13;6.30;97.30
15483;DHT22;7843;50.330;7.312;2023-02-01T17:26:41;6.20;97.70
15483;DHT22;7843;50.330;7.312;2023-02-01T17:29:09;6.20;98.00
15483;DHT22;7843;50.330;7.312;2023-02-01T17:31:41;6.30;97.70
15483;DHT22;7843;50.330;7.312;2023-02-01T17:34:13;6.30;97.60
15483;DHT22;7843;50.330;7.312;2023-02-01T17:36:45;6.30;98.20
15483;DHT22;7843;50.330;7.312;2023-02-01T17:39:13;6.30;98.60
15483;DHT22;7843;50.330;7.312;2023-02-01T17:41:59;6.20;98.70
15483;DHT22;7843;50.330;7.312;2023-02-01T17:44:26;6.20;98.70
15483;DHT22;7843;50.330;7.312;2023-02-01T17:46:53;6.20;99.30
15483;DHT22;7843;50.330;7.312;2023-02-01T17:49:22;6.10;99.80
15483;DHT22;7843;50.330;7.312;2023-02-01T17:51:49;6.10;99.90
15483;DHT22;7843;50.330;7.312;2023-02-01T17:54:16;6.10;99.90
15483;DHT22;7843;50.330;7.312;2023-02-01T17:56:45;6.00;99.90
15483;DHT22;7843;50.330;7.312;2023-02-01T17:59:14;5.90;99.90
15483;DHT22;7843;50.330;7.312;2023-02-01T18:01:41;5.90;99.90
15483;DHT22;7843;50.330;7.312;2023-02-01T18:04:17;5.80;99.90
15483;DHT22;7843;50.330;7.312;2023-02-01T18:06:44;5.80;99.90
15483;DHT22;7843;50.330;7.312;2023-02-01T18:09:11;5.80;99.90
15483;DHT22;7843;50.330;7.312;2023-02-01T18:11:38;5.80;99.90
15483;DHT22;7843;50.330;7.312;2023-02-01T18:14:04;5.80;99.90
15483;DHT22;7843;50.330;7.312;2023-02-01T18:16:33;5.70;99.90
15483;DHT22;7843;50.330;7.312;2023-02-01T18:18:59;5.80;99.90
15483;DHT22;7843;50.330;7.312;2023-02-01T18:21:33;5.70;99.90
15483;DHT22;7843;50.330;7.312;2023-02-01T18:24:00;5.60;99.90
15483;DHT22;7843;50.330;7.312;2023-02-01T18:26:27;5.60;99.90
15483;DHT22;7843;50.330;7.312;2023-02-01T18:28:53;5.60;99.90
15483;DHT22;7843;50.330;7.312;2023-02-01T18:31:29;5.60;99.90
15483;DHT22;7843;50.330;7.312;2023-02-01T18:33:58;5.50;99.90
15483;DHT22;7843;50.330;7.312;2023-02-01T18:36:26;5.50;99.90
15483;DHT22;7843;50.330;7.312;2023-02-01T18:38:53;5.50;99.90
15483;DHT22;7843;50.330;7.312;2023-02-01T18:41:23;5.50;99.90
15483;DHT22;7843;50.330;7.312;2023-02-01T18:43:51;5.50;99.90
15483;DHT22;7843;50.330;7.312;2023-02-01T18:46:18;5.40;99.90
15483;DHT22;7843;50.330;7.312;2023-02-01T18:48:47;5.40;99.90
15483;DHT22;7843;50.330;7.312;2023-02-01T18:51:17;5.40;99.90
15483;DHT22;7843;50.330;7.312;2023-02-01T18:53:46;5.40;99.90
15483;DHT22;7843;50.330;7.312;2023-02-01T18:56:14;5.30;99.90
15483;DHT22;7843;50.330;7.312;2023-02-01T18:58:41;5.40;99.90
15483;DHT22;7843;50.330;7.312;2023-02-01T19:01:12;5.30;99.90
15483;DHT22;7843;50.330;7.312;2023-02-01T19:03:41;5.40;99.90